Time;durP1;ratioP1;P1;durP2;ratioP2;P2;SDS_P1;SDS_P2;PMS_P1;PMS_P2;Temp;Humidity;BMP_temperature;BMP_pressure;BME280_temperature;BME280_humidity;BME280_pressure;Samples;Min_cycle;Max_cycle;Signal;HPM_P1;HPM_P2
2022/03/20 00:00:46;;;;;;;19.25;17.20;;;18.00;40.20;;;;;;6155894;23;20259;-72
2022/03/20 00:03:15;;;;;;;20.58;16.92;;;18.00;40.20;;;;;;6157813;23;20187;-72
2022/03/20 00:05:42;;;;;;;18.77;16.75;;;18.00;40.20;;;;;;6157379;23;20616;-72
2022/03/20 00:08:09;;;;;;;21.23;17.17;;;18.00;40.20;;;;;;6155988;23;20177;-72
2022/03/20 00:10:37;;;;;;;20.35;17.33;;;18.00;40.20;;;;;;6155943;23;20189;-72
2022/03/20 00:13:06;;;;;;;21.92;17.13;;;17.90;40.20;;;;;;6155994;23;20576;-72
2022/03/20 00:15:33;;;;;;;19.90;16.48;;;17.90;40.20;;;;;;6155934;23;20208;-72
2022/03/20 00:18:03;;;;;;;20.27;16.65;;;17.90;40.20;;;;;;6155846;23;20623;-72
2022/03/20 00:20:35;;;;;;;22.00;16.80;;;17.80;40.00;;;;;;6156156;23;20468;-72
2022/03/20 00:23:04;;;;;;;19.35;16.75;;;17.90;40.20;;;;;;6155684;23;20654;-72
2022/03/20 00:25:32;;;;;;;19.92;16.67;;;17.80;40.10;;;;;;6155982;23;20177;-72
2022/03/20 00:27:59;;;;;;;19.50;16.27;;;17.80;40.10;;;;;;6155786;23;20169;-72
2022/03/20 00:30:26;;;;;;;19.35;16.00;;;17.80;40.10;;;;;;6155772;23;20201;-72
2022/03/20 00:32:54;;;;;;;19.75;16.17;;;17.80;40.10;;;;;;6155798;23;20200;-72
2022/03/20 00:35:22;;;;;;;17.58;15.40;;;17.80;40.20;;;;;;6157884;23;20199;-72
2022/03/20 00:37:49;;;;;;;18.45;16.48;;;17.80;40.20;;;;;;6157325;23;20169;-72
2022/03/20 00:40:17;;;;;;;17.60;15.75;;;17.80;40.00;;;;;;6159992;23;20179;-72
2022/03/20 00:42:44;;;;;;;18.13;15.55;;;17.70;40.00;;;;;;6161069;23;20212;-72
2022/03/20 00:45:11;;;;;;;17.55;15.00;;;17.70;40.00;;;;;;6158181;23;20545;-72
2022/03/20 00:47:38;;;;;;;17.08;15.00;;;17.70;39.90;;;;;;6155874;23;20187;-72
2022/03/20 00:50:07;;;;;;;16.35;14.55;;;17.70;39.90;;;;;;6155888;23;20204;-72
2022/03/20 00:52:35;;;;;;;16.55;14.80;;;17.70;39.90;;;;;;6156836;23;20631;-72
2022/03/20 00:55:02;;;;;;;18.60;15.43;;;17.70;40.00;;;;;;6155834;23;20172;-72
2022/03/20 00:57:29;;;;;;;16.85;15.05;;;17.60;39.90;;;;;;6155446;23;20177;-72
2022/03/20 00:59:56;;;;;;;15.63;13.90;;;17.60;40.00;;;;;;6155402;23;20515;-72
2022/03/20 01:02:24;;;;;;;16.55;14.70;;;17.70;39.90;;;;;;6155181;23;20197;-73
2022/03/20 01:04:51;;;;;;;15.50;13.93;;;17.60;39.90;;;;;;6155014;23;20236;-72
2022/03/20 01:07:18;;;;;;;17.98;15.18;;;17.60;40.00;;;;;;6155516;23;20653;-72
2022/03/20 01:09:47;;;;;;;17.08;14.85;;;17.60;40.00;;;;;;6155156;23;20227;-72
2022/03/20 01:12:14;;;;;;;16.25;14.55;;;17.60;39.90;;;;;;6155323;23;20193;-72
2022/03/20 01:14:41;;;;;;;16.02;14.30;;;17.50;39.90;;;;;;6155253;23;20619;-72
2022/03/20 01:17:08;;;;;;;16.05;13.35;;;17.60;40.00;;;;;;6156978;23;20587;-72
2022/03/20 01:19:37;;;;;;;17.05;14.50;;;17.50;40.00;;;;;;6155104;23;20197;-72
2022/03/20 01:22:05;;;;;;;16.90;14.13;;;17.50;40.00;;;;;;6156707;23;20185;-72
2022/03/20 01:24:32;;;;;;;15.32;13.68;;;17.50;40.00;;;;;;6154733;23;20196;-72
2022/03/20 01:27:01;;;;;;;16.15;13.95;;;17.50;40.00;;;;;;6154811;23;20168;-71
2022/03/20 01:29:28;;;;;;;14.93;13.32;;;17.50;40.00;;;;;;6154909;23;20176;-72
2022/03/20 01:31:55;;;;;;;14.20;12.80;;;17.50;40.00;;;;;;6183744;23;20642;-72
2022/03/20 01:34:22;;;;;;;14.85;13.35;;;17.50;40.20;;;;;;6159915;23;20517;-72
2022/03/20 01:36:50;;;;;;;15.57;13.52;;;17.50;40.00;;;;;;6159822;23;20202;-72
2022/03/20 01:39:17;;;;;;;15.27;13.68;;;17.40;40.00;;;;;;6186378;23;20240;-71
2022/03/20 01:41:46;;;;;;;15.52;13.30;;;17.40;40.60;;;;;;6186642;23;20211;-72
2022/03/20 01:44:14;;;;;;;15.00;13.40;;;17.40;40.00;;;;;;6159913;23;20629;-72
2022/03/20 01:46:42;;;;;;;14.65;13.13;;;17.40;40.00;;;;;;6159994;23;20255;-72
2022/03/20 01:49:09;;;;;;;14.27;12.77;;;17.40;39.90;;;;;;6160021;23;20250;-72
2022/03/20 01:54:21;;;;;;;15.10;13.02;;;17.40;39.90;;;;;;6160074;23;20245;-72
2022/03/20 01:56:49;;;;;;;15.93;13.40;;;17.40;39.90;;;;;;6160408;23;20183;-72
2022/03/20 01:59:18;;;;;;;14.63;13.13;;;17.40;39.90;;;;;;6185225;23;20181;-72
2022/03/20 02:01:45;;;;;;;14.48;12.90;;;17.30;39.60;;;;;;6185120;23;20192;-71
2022/03/20 02:04:14;;;;;;;13.85;12.45;;;17.40;39.70;;;;;;6186676;23;20164;-72
2022/03/20 02:06:41;;;;;;;15.02;13.43;;;17.30;39.90;;;;;;6160416;23;20179;-72
2022/03/20 02:09:09;;;;;;;14.05;12.63;;;17.30;39.80;;;;;;6159972;23;20222;-72
2022/03/20 02:11:35;;;;;;;14.68;12.95;;;17.40;40.20;;;;;;6159905;23;20194;-72
2022/03/20 02:14:05;;;;;;;14.05;12.63;;;17.30;39.80;;;;;;6185063;23;20176;-72
2022/03/20 02:16:34;;;;;;;14.43;12.60;;;17.30;39.80;;;;;;6160264;23;20203;-71
2022/03/20 02:19:04;;;;;;;15.40;12.82;;;17.30;39.90;;;;;;6159728;23;20697;-72
2022/03/20 02:21:41;;;;;;;13.10;11.80;;;17.30;39.80;;;;;;6160238;23;20167;-72
2022/03/20 02:24:29;;;;;;;14.30;12.80;;;17.30;39.80;;;;;;6160068;23;20223;-72
2022/03/20 02:27:12;;;;;;;14.00;12.50;;;17.30;39.90;;;;;;6160276;23;20172;-72
2022/03/20 02:29:40;;;;;;;13.73;12.10;;;17.20;39.90;;;;;;6159932;23;20192;-72
2022/03/20 02:32:08;;;;;;;13.27;11.73;;;17.30;39.90;;;;;;6160254;23;20214;-72
2022/03/20 02:34:36;;;;;;;12.85;11.48;;;17.30;39.80;;;;;;6186257;23;20504;-72
2022/03/20 02:37:05;;;;;;;12.93;11.45;;;17.30;39.90;;;;;;6186454;23;20199;-72
2022/03/20 02:39:32;;;;;;;13.27;11.98;;;17.20;39.80;;;;;;6160157;23;20508;-72
2022/03/20 02:42:01;;;;;;;13.25;11.85;;;17.20;39.80;;;;;;6159851;23;20211;-72
2022/03/20 02:44:51;;;;;;;13.38;12.00;;;17.20;39.90;;;;;;6159683;23;20258;-72
2022/03/20 02:47:23;;;;;;;13.32;11.65;;;17.20;40.00;;;;;;6184817;23;20172;-72
2022/03/20 02:49:55;;;;;;;13.05;11.57;;;17.20;39.90;;;;;;6186602;23;20157;-71
2022/03/20 02:52:25;;;;;;;12.18;10.98;;;17.20;40.00;;;;;;6184319;23;20204;-72
2022/03/20 02:54:52;;;;;;;12.45;11.25;;;17.20;40.00;;;;;;6186432;23;20584;-72
2022/03/20 02:57:20;;;;;;;12.38;11.18;;;17.20;40.00;;;;;;6185463;23;20531;-71
2022/03/20 02:59:46;;;;;;;13.35;12.05;;;17.10;39.90;;;;;;6184901;23;20176;-72
2022/03/20 03:02:14;;;;;;;12.88;11.68;;;17.20;40.10;;;;;;6161622;23;20591;-72
2022/03/20 03:04:42;;;;;;;11.95;10.75;;;17.10;40.00;;;;;;6186442;23;20184;-72
2022/03/20 03:07:09;;;;;;;12.50;11.30;;;17.10;40.10;;;;;;6161542;23;20203;-70
2022/03/20 03:12:24;;;;;;;12.80;11.38;;;17.10;40.00;;;;;;6161631;23;20282;-70
2022/03/20 03:17:36;;;;;;;12.30;10.98;;;17.10;40.00;;;;;;6161735;23;20164;-72
2022/03/20 03:20:04;;;;;;;12.18;10.98;;;17.10;40.10;;;;;;6161533;23;20182;-70
2022/03/20 03:22:31;;;;;;;13.05;11.43;;;17.10;40.20;;;;;;6161959;23;20192;-70
2022/03/20 03:24:59;;;;;;;12.43;11.13;;;17.10;40.10;;;;;;6162219;23;20175;-70
2022/03/20 03:27:27;;;;;;;12.40;11.10;;;17.00;39.90;;;;;;6187833;23;20203;-70
2022/03/20 03:29:54;;;;;;;12.70;11.40;;;17.00;40.60;;;;;;6186067;23;20172;-70
2022/03/20 03:32:21;;;;;;;11.55;10.18;;;17.00;39.90;;;;;;6161171;23;20196;-70
2022/03/20 03:37:33;;;;;;;11.70;10.60;;;17.00;40.50;;;;;;6161659;23;20164;-70
2022/03/20 03:40:02;;;;;;;12.30;11.13;;;17.00;39.80;;;;;;6161239;23;20200;-70
2022/03/20 03:42:31;;;;;;;12.45;11.00;;;17.00;39.80;;;;;;6186118;23;20207;-70
2022/03/20 03:44:58;;;;;;;12.35;11.15;;;17.00;39.80;;;;;;6161456;23;20180;-70
2022/03/20 03:47:25;;;;;;;12.07;10.77;;;17.00;39.80;;;;;;6186656;23;20347;-70
2022/03/20 03:49:53;;;;;;;12.13;10.75;;;17.00;39.70;;;;;;6193500;23;20203;-70
2022/03/20 03:52:19;;;;;;;12.60;11.40;;;17.00;39.70;;;;;;6160967;23;20649;-70
2022/03/20 03:54:47;;;;;;;12.23;11.02;;;17.00;39.80;;;;;;6161281;23;20259;-70
2022/03/20 03:57:16;;;;;;;11.32;10.23;;;17.00;39.90;;;;;;6161776;23;20176;-70
2022/03/20 03:59:43;;;;;;;11.93;10.70;;;17.00;39.80;;;;;;6181187;23;20226;-70
2022/03/20 04:02:09;;;;;;;12.45;11.18;;;17.00;39.80;;;;;;6191679;23;20311;-70
2022/03/20 04:04:38;;;;;;;12.23;11.10;;;17.00;39.70;;;;;;6186288;23;20492;-70
2022/03/20 04:07:05;;;;;;;11.60;10.40;;;17.00;39.80;;;;;;6185911;23;20176;-70
2022/03/20 04:09:33;;;;;;;12.05;10.82;;;17.00;39.80;;;;;;6185739;23;20226;-70
2022/03/20 04:12:00;;;;;;;12.15;10.95;;;17.00;39.80;;;;;;6185410;23;20223;-70
2022/03/20 04:14:29;;;;;;;11.18;10.15;;;16.90;39.70;;;;;;6185916;23;20259;-70
2022/03/20 04:16:57;;;;;;;11.68;10.50;;;16.90;39.70;;;;;;6186145;23;20195;-70
2022/03/20 04:19:25;;;;;;;11.70;10.57;;;16.90;39.70;;;;;;6185450;23;20176;-70
2022/03/20 04:21:52;;;;;;;11.82;10.68;;;16.90;39.60;;;;;;6185494;23;20190;-70
2022/03/20 04:24:19;;;;;;;11.95;10.75;;;17.00;39.70;;;;;;6185857;23;20175;-70
2022/03/20 04:26:46;;;;;;;11.60;10.50;;;16.90;39.70;;;;;;6186211;23;20172;-70
2022/03/20 04:29:13;;;;;;;11.60;10.50;;;16.90;39.70;;;;;;6196476;23;20169;-70
2022/03/20 04:31:42;;;;;;;11.82;10.63;;;16.90;39.50;;;;;;6186763;23;20199;-70
2022/03/20 04:34:10;;;;;;;11.65;10.45;;;16.90;39.50;;;;;;6187442;23;20247;-70
2022/03/20 04:36:37;;;;;;;11.73;10.60;;;16.90;39.60;;;;;;6185701;23;20571;-70
2022/03/20 04:39:04;;;;;;;11.85;10.65;;;17.00;39.70;;;;;;6187619;23;20165;-70
2022/03/20 04:41:31;;;;;;;12.05;10.75;;;17.00;39.60;;;;;;6186393;23;20243;-70
2022/03/20 04:43:59;;;;;;;11.80;10.70;;;17.00;39.50;;;;;;6186853;23;20180;-70
2022/03/20 04:46:26;;;;;;;11.65;10.55;;;17.00;39.30;;;;;;6186937;23;20222;-70
2022/03/20 04:59:54;;;;;;;12.40;11.10;;;17.00;39.50;;;;;;6186004;23;20183;-70
2022/03/20 05:02:21;;;;;;;11.25;10.15;;;17.00;39.40;;;;;;6185858;23;20192;-70
2022/03/20 05:04:49;;;;;;;12.98;11.65;;;17.00;39.50;;;;;;6186285;23;20199;-70
2022/03/20 05:07:17;;;;;;;12.45;11.25;;;17.00;39.50;;;;;;6186313;23;20195;-70
2022/03/20 05:15:14;;;;;;;12.65;10.98;;;17.10;39.30;;;;;;6185650;23;20163;-70
2022/03/20 05:17:41;;;;;;;12.07;10.88;;;17.10;39.40;;;;;;6185443;23;20277;-70
2022/03/20 05:20:11;;;;;;;11.70;10.60;;;17.10;39.20;;;;;;6186995;23;20191;-70
2022/03/20 05:22:39;;;;;;;10.57;9.57;;;17.10;39.10;;;;;;6185169;23;20192;-71
2022/03/20 05:25:08;;;;;;;12.00;10.85;;;17.20;39.30;;;;;;6185730;23;20176;-70
2022/03/20 05:27:35;;;;;;;12.27;11.10;;;17.20;39.30;;;;;;6191697;23;20650;-70
2022/03/20 05:30:02;;;;;;;11.82;10.63;;;17.20;39.00;;;;;;6190913;23;20168;-70
2022/03/20 05:32:30;;;;;;;12.00;10.85;;;17.20;39.10;;;;;;6190682;23;20535;-70
2022/03/20 05:34:57;;;;;;;12.35;11.05;;;17.20;39.20;;;;;;6187701;23;20243;-70
2022/03/20 05:37:26;;;;;;;12.15;10.95;;;17.30;39.10;;;;;;6185401;23;20588;-70
2022/03/20 05:39:53;;;;;;;12.57;11.27;;;17.30;39.20;;;;;;6185176;23;20175;-70
2022/03/20 05:42:20;;;;;;;12.20;10.57;;;17.30;39.10;;;;;;6185335;23;20194;-71
2022/03/20 05:44:48;;;;;;;11.68;10.57;;;17.30;39.00;;;;;;6185608;23;20207;-71
2022/03/20 05:47:15;;;;;;;12.20;11.05;;;17.30;39.10;;;;;;6185272;23;20180;-70
2022/03/20 05:49:43;;;;;;;12.02;10.88;;;17.40;38.80;;;;;;6185118;23;20176;-70
2022/03/20 05:52:10;;;;;;;11.52;10.38;;;17.40;39.10;;;;;;6186684;23;20196;-70
2022/03/20 05:54:38;;;;;;;10.75;9.75;;;17.40;38.70;;;;;;6185088;23;20203;-70
2022/03/20 05:59:53;;;;;;;11.70;10.50;;;17.50;38.60;;;;;;6184684;23;20258;-70
2022/03/20 06:02:21;;;;;;;13.07;10.90;;;17.60;38.70;;;;;;6186420;23;20184;-70
2022/03/20 06:04:49;;;;;;;10.85;9.80;;;17.50;38.60;;;;;;6185168;23;20314;-70
2022/03/20 06:07:16;;;;;;;10.95;9.95;;;17.60;38.60;;;;;;6185142;23;20192;-70
2022/03/20 06:09:44;;;;;;;11.50;10.30;;;17.60;38.40;;;;;;6185327;23;20172;-70
2022/03/20 06:12:11;;;;;;;11.48;10.27;;;17.70;38.20;;;;;;6184777;23;20231;-70
2022/03/20 06:14:38;;;;;;;11.82;10.68;;;17.70;38.30;;;;;;6186831;23;20188;-70
2022/03/20 06:17:06;;;;;;;12.05;10.95;;;17.80;38.30;;;;;;6185333;23;20218;-70
2022/03/20 06:19:35;;;;;;;11.70;10.60;;;17.80;38.10;;;;;;6185111;23;20179;-70
2022/03/20 06:22:02;;;;;;;11.75;10.55;;;17.80;38.00;;;;;;6184945;23;20239;-70
2022/03/20 06:24:29;;;;;;;12.10;10.90;;;17.90;38.60;;;;;;6186966;23;20164;-70
2022/03/20 06:26:58;;;;;;;11.20;10.20;;;17.90;37.50;;;;;;6186634;23;20182;-70
2022/03/20 06:29:25;;;;;;;11.40;10.30;;;18.00;37.70;;;;;;6186780;23;20164;-70
2022/03/20 06:31:53;;;;;;;11.77;10.57;;;18.00;37.50;;;;;;6184871;23;20196;-70
2022/03/20 06:34:21;;;;;;;12.20;11.00;;;18.00;37.40;;;;;;6185189;23;20182;-70
2022/03/20 06:36:48;;;;;;;12.65;11.30;;;18.10;37.40;;;;;;6187093;23;20626;-70
2022/03/20 06:39:16;;;;;;;12.32;11.10;;;18.10;37.30;;;;;;6186613;23;20176;-70
2022/03/20 06:41:43;;;;;;;11.30;10.20;;;18.10;36.90;;;;;;6186594;23;20540;-70
2022/03/20 06:44:15;;;;;;;11.95;10.77;;;18.10;37.20;;;;;;6187161;23;20173;-70
2022/03/20 06:46:42;;;;;;;11.90;10.80;;;18.20;37.20;;;;;;6188558;23;20182;-70
2022/03/20 06:49:10;;;;;;;12.40;11.20;;;18.30;36.80;;;;;;6186731;23;20211;-70
2022/03/20 06:51:37;;;;;;;11.63;10.50;;;18.30;36.60;;;;;;6186217;23;20219;-70
2022/03/20 06:54:06;;;;;;;12.68;11.40;;;18.40;36.80;;;;;;6186638;23;20179;-70
2022/03/20 06:56:34;;;;;;;12.77;11.15;;;18.50;36.90;;;;;;6186566;23;20176;-70
2022/03/20 07:01:47;;;;;;;12.10;10.90;;;18.60;35.40;;;;;;6187596;23;20219;-63
2022/03/20 07:04:14;;;;;;;12.20;11.00;;;18.70;35.70;;;;;;6156067;23;20195;-63
2022/03/20 07:06:41;;;;;;;13.05;11.75;;;18.80;35.50;;;;;;6158092;23;20215;-63
2022/03/20 07:09:08;;;;;;;12.73;11.52;;;18.90;35.30;;;;;;6132155;23;20183;-63
2022/03/20 07:11:36;;;;;;;13.07;11.77;;;19.00;35.30;;;;;;6158236;23;20619;-64
2022/03/20 07:14:03;;;;;;;12.27;11.13;;;19.10;35.00;;;;;;6159424;23;20268;-63
2022/03/20 07:16:31;;;;;;;11.45;10.45;;;19.30;35.20;;;;;;6159077;23;20169;-63
2022/03/20 07:18:59;;;;;;;11.80;10.65;;;19.40;34.90;;;;;;6160213;23;20169;-63
2022/03/20 07:21:28;;;;;;;11.52;10.43;;;19.50;34.80;;;;;;6133810;23;20177;-63
2022/03/20 07:23:57;;;;;;;11.98;10.88;;;19.70;34.60;;;;;;6132303;23;20220;-63
2022/03/20 07:31:55;;;;;;;13.15;11.85;;;20.00;34.00;;;;;;6158470;23;20554;-63
2022/03/20 07:34:24;;;;;;;12.60;11.40;;;20.10;34.50;;;;;;6131659;23;20655;-63
2022/03/20 07:36:51;;;;;;;13.23;11.93;;;20.30;34.00;;;;;;6158445;23;20305;-63
2022/03/20 07:39:19;;;;;;;13.35;12.05;;;20.30;33.80;;;;;;6158338;23;20188;-63
2022/03/20 07:41:46;;;;;;;13.15;11.88;;;20.40;33.50;;;;;;6131523;23;20195;-63
2022/03/20 07:44:22;;;;;;;12.25;11.05;;;20.60;33.60;;;;;;6131490;23;20214;-63
2022/03/20 07:46:49;;;;;;;11.10;10.05;;;20.60;33.60;;;;;;6157381;23;20165;-63
2022/03/20 07:49:16;;;;;;;12.80;11.52;;;20.70;33.60;;;;;;6158129;23;20200;-63
2022/03/20 07:51:46;;;;;;;12.82;11.55;;;20.90;33.30;;;;;;6131952;23;20179;-63
2022/03/20 07:54:13;;;;;;;11.02;10.02;;;20.90;33.40;;;;;;6131967;23;20192;-63
2022/03/20 07:56:40;;;;;;;13.32;11.93;;;21.00;34.10;;;;;;6157829;23;20169;-63
2022/03/20 07:59:09;;;;;;;12.35;11.25;;;21.20;33.40;;;;;;6157445;23;20177;-63
2022/03/20 08:01:37;;;;;;;12.48;11.27;;;21.20;33.10;;;;;;6153793;23;20204;-63
2022/03/20 08:04:04;;;;;;;11.75;10.75;;;21.30;33.00;;;;;;6156926;23;20264;-63
2022/03/20 08:06:32;;;;;;;13.10;11.82;;;21.40;33.10;;;;;;6157055;23;20491;-63
2022/03/20 08:09:00;;;;;;;12.15;10.95;;;21.40;33.10;;;;;;6157402;23;20227;-63
2022/03/20 08:11:28;;;;;;;11.77;10.68;;;21.50;33.00;;;;;;6157266;23;20678;-63
2022/03/20 08:13:56;;;;;;;12.15;10.95;;;21.60;33.00;;;;;;6155233;23;20207;-63
2022/03/20 08:16:25;;;;;;;11.82;10.75;;;21.70;33.00;;;;;;6155342;23;20176;-63
2022/03/20 08:18:53;;;;;;;12.68;11.38;;;21.70;33.00;;;;;;6155274;23;20690;-63
2022/03/20 08:21:20;;;;;;;11.88;10.85;;;21.80;32.90;;;;;;6157331;23;20244;-63
2022/03/20 08:23:47;;;;;;;11.50;10.50;;;21.90;32.80;;;;;;6156832;23;20185;-63
2022/03/20 08:26:17;;;;;;;10.90;9.85;;;22.00;32.80;;;;;;6157339;23;20199;-64
2022/03/20 08:28:45;;;;;;;11.65;10.55;;;22.00;32.60;;;;;;6156990;23;20677;-63
2022/03/20 08:31:12;;;;;;;11.20;10.20;;;22.10;32.60;;;;;;6157009;23;20169;-63
2022/03/20 08:33:41;;;;;;;10.88;9.88;;;22.20;32.50;;;;;;6156837;23;20216;-63
2022/03/20 08:36:08;;;;;;;10.27;9.38;;;22.30;32.50;;;;;;6156727;23;20189;-63
2022/03/20 08:38:37;;;;;;;9.73;8.93;;;22.30;32.30;;;;;;6155147;23;20169;-63
2022/03/20 08:41:05;;;;;;;9.68;8.82;;;22.40;32.30;;;;;;6157052;23;20244;-63
2022/03/20 08:43:34;;;;;;;10.90;9.90;;;22.50;32.30;;;;;;6154981;23;20189;-63
2022/03/20 08:46:01;;;;;;;10.35;9.45;;;22.50;32.10;;;;;;6156479;23;20179;-63
2022/03/20 08:48:28;;;;;;;9.60;8.77;;;22.60;32.60;;;;;;6154978;23;20176;-63
2022/03/20 08:50:56;;;;;;;9.85;9.02;;;22.60;31.90;;;;;;6156634;23;20169;-63
2022/03/20 08:53:25;;;;;;;10.10;9.25;;;22.70;31.80;;;;;;6154548;23;20204;-63
2022/03/20 08:55:53;;;;;;;9.57;8.75;;;22.70;31.80;;;;;;6154951;23;20176;-63
2022/03/20 08:58:19;;;;;;;9.85;9.00;;;22.80;31.80;;;;;;6154903;23;20247;-63
2022/03/20 09:00:49;;;;;;;9.00;8.20;;;22.80;31.60;;;;;;6154727;23;20259;-63
2022/03/20 09:03:41;;;;;;;9.82;9.02;;;22.90;31.60;;;;;;6156587;23;20250;-63
2022/03/20 09:06:09;;;;;;;9.30;8.50;;;23.00;31.60;;;;;;6154996;23;20176;-63
2022/03/20 09:08:36;;;;;;;9.70;8.80;;;23.00;31.60;;;;;;6156789;23;20175;-63
2022/03/20 09:11:03;;;;;;;9.25;8.55;;;23.00;31.40;;;;;;6156919;23;20169;-63
2022/03/20 09:13:31;;;;;;;9.57;8.77;;;23.10;31.40;;;;;;6156355;23;20371;-62
2022/03/20 09:19:10;;;;;;;9.90;9.07;;;23.20;31.40;;;;;;6154653;23;20165;-63
2022/03/20 09:24:10;;;;;;;9.80;8.90;;;23.20;31.20;;;;;;6101675;23;20189;-69
2022/03/20 09:26:37;;;;;;;9.38;8.48;;;23.20;31.40;;;;;;6103075;23;20508;-70
2022/03/20 09:29:04;;;;;;;10.15;9.20;;;23.30;31.50;;;;;;6127648;23;20225;-69
2022/03/20 09:31:34;;;;;;;10.48;9.52;;;23.40;31.40;;;;;;6101412;23;20193;-70
2022/03/20 09:34:22;;;;;;;11.30;9.48;;;23.40;32.10;;;;;;6102507;23;20414;-73
2022/03/20 09:36:49;;;;;;;10.40;9.50;;;23.40;32.40;;;;;;6095608;23;20539;-74
2022/03/20 09:39:17;;;;;;;10.70;9.63;;;23.40;32.20;;;;;;6101361;23;20269;-74
2022/03/20 09:41:45;;;;;;;10.43;9.43;;;23.50;32.40;;;;;;6101816;23;20224;-74
2022/03/20 09:44:15;;;;;;;68.13;28.52;;;23.50;32.40;;;;;;6102677;23;20555;-74
2022/03/20 09:46:43;;;;;;;255.45;88.88;;;23.50;32.50;;;;;;6101838;23;20185;-74
2022/03/20 09:49:11;;;;;;;182.73;66.72;;;23.60;32.30;;;;;;6103399;23;20184;-75
2022/03/20 09:51:39;;;;;;;216.68;81.50;;;23.60;32.50;;;;;;6101435;23;20177;-73
2022/03/20 09:54:08;;;;;;;215.32;87.45;;;23.60;34.50;;;;;;6102120;23;20212;-75
2022/03/20 09:56:35;;;;;;;223.48;82.90;;;23.60;34.20;;;;;;6128123;23;20177;-75
2022/03/20 09:59:02;;;;;;;194.90;73.25;;;23.70;34.60;;;;;;6101476;23;20228;-73
2022/03/20 10:01:29;;;;;;;162.52;67.18;;;23.70;34.40;;;;;;6101395;23;20197;-72
2022/03/20 10:04:11;;;;;;;139.82;54.42;;;23.80;34.40;;;;;;6103530;23;20616;-71
2022/03/20 10:06:39;;;;;;;127.68;49.47;;;23.70;33.60;;;;;;6101366;23;20177;-73
2022/03/20 10:09:07;;;;;;;123.65;50.15;;;23.70;33.50;;;;;;6101552;23;20205;-72
2022/03/20 10:11:35;;;;;;;99.45;44.60;;;23.70;34.30;;;;;;6159168;23;20219;-70
2022/03/20 10:14:07;;;;;;;99.25;42.42;;;23.80;34.00;;;;;;6194578;23;20183;-70
2022/03/20 10:16:34;;;;;;;94.55;41.30;;;23.80;33.30;;;;;;6192925;23;20206;-70
2022/03/20 10:19:02;;;;;;;92.70;39.25;;;23.70;33.40;;;;;;6192138;23;20233;-70
2022/03/20 10:21:44;;;;;;;86.55;39.03;;;23.80;33.50;;;;;;6163237;23;20250;-69
2022/03/20 10:24:16;;;;;;;78.88;36.35;;;23.80;33.70;;;;;;6188240;23;20163;-70
2022/03/20 10:26:43;;;;;;;75.10;33.95;;;23.80;33.60;;;;;;6188158;23;20555;-71
2022/03/20 10:29:15;;;;;;;70.03;33.78;;;23.80;33.70;;;;;;6188474;23;20219;-70
2022/03/20 10:31:48;;;;;;;65.28;32.42;;;23.80;33.80;;;;;;6159185;23;20650;-72
2022/03/20 10:34:16;;;;;;;64.72;32.45;;;23.70;33.70;;;;;;6161363;23;20192;-72
2022/03/20 10:36:44;;;;;;;71.28;32.28;;;23.60;34.10;;;;;;6162237;23;20176;-72
2022/03/20 10:39:16;;;;;;;64.55;30.55;;;23.50;34.20;;;;;;6166522;22;20192;-53
2022/03/20 10:41:45;;;;;;;54.53;29.80;;;23.50;34.00;;;;;;6248260;23;20596;-55
2022/03/20 10:44:14;;;;;;;61.45;29.77;;;23.50;34.10;;;;;;6196721;23;20191;-53
2022/03/20 10:46:41;;;;;;;62.35;30.05;;;23.50;34.80;;;;;;6190848;23;20222;-54
2022/03/20 10:49:09;;;;;;;59.55;28.60;;;23.50;34.80;;;;;;6217415;23;20172;-54
2022/03/20 10:51:38;;;;;;;53.38;27.33;;;23.50;34.40;;;;;;6190756;23;20263;-54
2022/03/20 10:54:08;;;;;;;58.85;27.98;;;23.60;35.10;;;;;;6217283;23;20218;-54
2022/03/20 10:56:36;;;;;;;56.60;27.65;;;23.60;35.00;;;;;;6217626;23;20214;-54
2022/03/20 10:59:13;;;;;;;53.88;26.75;;;23.60;34.80;;;;;;6217449;23;20171;-54
2022/03/20 11:01:40;;;;;;;50.63;26.42;;;23.60;34.70;;;;;;6217537;23;20148;-54
2022/03/20 11:04:08;;;;;;;50.90;25.55;;;23.50;34.60;;;;;;6190484;23;20187;-54
2022/03/20 11:06:36;;;;;;;49.85;25.40;;;23.50;34.60;;;;;;6217107;23;20618;-54
2022/03/20 11:09:04;;;;;;;45.95;23.88;;;23.40;34.60;;;;;;6217144;23;20214;-54
2022/03/20 11:11:33;;;;;;;47.13;24.33;;;23.30;34.60;;;;;;6217400;23;20656;-54
2022/03/20 11:14:01;;;;;;;48.72;24.90;;;23.20;34.60;;;;;;6216902;23;20191;-54
2022/03/20 11:16:28;;;;;;;49.85;23.95;;;23.20;34.60;;;;;;6190427;23;20179;-54
2022/03/20 11:18:55;;;;;;;42.47;22.60;;;23.10;35.30;;;;;;6217302;23;20168;-54
2022/03/20 11:21:24;;;;;;;42.08;22.70;;;23.10;34.80;;;;;;6216718;23;20163;-54
2022/03/20 11:23:52;;;;;;;41.50;23.20;;;23.00;34.80;;;;;;6190238;23;20215;-54
2022/03/20 11:26:20;;;;;;;43.75;22.33;;;23.00;34.80;;;;;;6217158;23;20166;-54
2022/03/20 11:28:51;;;;;;;42.00;21.60;;;23.00;34.80;;;;;;6217356;22;20286;-63
2022/03/20 11:31:19;;;;;;;36.92;21.33;;;23.00;34.80;;;;;;6217304;23;20156;-64
2022/03/20 11:33:46;;;;;;;44.13;21.17;;;23.00;34.80;;;;;;6196035;23;20227;-62
2022/03/20 11:36:13;;;;;;;36.42;21.10;;;22.90;34.80;;;;;;6187217;23;20163;-63
2022/03/20 11:38:41;;;;;;;35.42;20.27;;;22.90;34.70;;;;;;6187027;23;20174;-63
2022/03/20 11:41:11;;;;;;;37.80;19.50;;;22.90;34.70;;;;;;6186962;23;20174;-63
2022/03/20 11:43:39;;;;;;;36.03;20.45;;;23.00;35.30;;;;;;6187077;23;20257;-62
2022/03/20 11:46:34;;;;;;;31.17;18.73;;;22.90;34.50;;;;;;6161070;23;20188;-63
2022/03/20 11:49:20;;;;;;;35.83;18.17;;;23.00;34.40;;;;;;6134941;23;20204;-63
2022/03/20 11:52:00;;;;;;;36.70;20.33;;;23.00;34.40;;;;;;6189107;23;20285;-70
2022/03/20 11:54:32;;;;;;;50.60;26.75;;;23.00;34.60;;;;;;6191425;23;20207;-71
2022/03/20 11:57:00;;;;;;;46.97;23.83;;;23.00;34.60;;;;;;6191742;23;20525;-72
2022/03/20 11:59:45;;;;;;;40.88;22.70;;;23.00;34.90;;;;;;6185493;23;20203;-72
2022/03/20 12:02:14;;;;;;;43.00;22.63;;;23.00;34.90;;;;;;6185736;23;20160;-72
2022/03/20 12:04:58;;;;;;;40.47;21.92;;;23.00;34.90;;;;;;6190045;23;20168;-73
2022/03/20 12:07:28;;;;;;;38.70;20.70;;;23.00;34.80;;;;;;6186682;23;20199;-70
2022/03/20 12:10:03;;;;;;;31.33;18.98;;;23.10;34.60;;;;;;6209391;23;20188;-71
2022/03/20 12:13:04;;;;;;;37.35;19.52;;;23.10;35.10;;;;;;6182952;23;20214;-70
2022/03/20 12:15:31;;;;;;;34.10;19.40;;;23.00;34.40;;;;;;6192089;23;20605;-70
2022/03/20 12:18:02;;;;;;;33.92;19.13;;;23.00;34.40;;;;;;6196149;23;20168;-70
2022/03/20 12:20:51;;;;;;;32.58;18.42;;;23.00;34.00;;;;;;6174778;23;20195;-70
2022/03/20 12:23:39;;;;;;;29.88;18.25;;;23.00;34.00;;;;;;6160392;23;20160;-70
2022/03/20 12:26:33;;;;;;;29.02;17.63;;;23.00;34.00;;;;;;6185019;23;20198;-70
2022/03/20 12:29:29;;;;;;;27.60;17.08;;;23.00;33.90;;;;;;6185034;23;20246;-70
2022/03/20 12:31:57;;;;;;;31.98;17.10;;;23.00;33.80;;;;;;6160321;23;20177;-70
2022/03/20 12:34:26;;;;;;;30.83;16.88;;;23.00;33.60;;;;;;6159958;23;20188;-69
2022/03/20 12:36:54;;;;;;;30.58;16.88;;;23.10;33.80;;;;;;6186918;23;20627;-70
2022/03/20 12:39:52;;;;;;;27.30;17.17;;;23.10;33.70;;;;;;6160908;23;20181;-71
2022/03/20 12:42:19;;;;;;;31.27;18.25;;;23.10;33.40;;;;;;6185803;23;20183;-71
2022/03/20 12:44:47;;;;;;;31.98;16.75;;;23.10;33.90;;;;;;6187159;23;20615;-70
2022/03/20 12:47:17;;;;;;;27.52;15.65;;;23.10;33.50;;;;;;6186872;23;20168;-70
2022/03/20 12:49:47;;;;;;;28.45;16.52;;;23.10;33.30;;;;;;6185388;23;20191;-70
2022/03/20 12:52:14;;;;;;;28.55;15.93;;;23.10;33.50;;;;;;6185190;23;20176;-71
2022/03/20 12:54:41;;;;;;;24.75;15.25;;;23.10;33.20;;;;;;6185233;23;20631;-70
2022/03/20 12:57:09;;;;;;;26.52;15.57;;;23.10;32.90;;;;;;6186883;23;20176;-70
2022/03/20 12:59:36;;;;;;;22.42;14.65;;;23.10;32.70;;;;;;6185496;23;20279;-70
2022/03/20 13:02:08;;;;;;;27.90;15.55;;;23.20;33.30;;;;;;6163428;23;20168;-71
2022/03/20 13:04:35;;;;;;;26.92;15.55;;;23.10;33.20;;;;;;6189429;23;20255;-71
2022/03/20 13:07:20;;;;;;;25.10;14.90;;;23.10;32.80;;;;;;6187458;23;20168;-71
2022/03/20 13:09:57;;;;;;;26.02;15.18;;;23.10;32.90;;;;;;6160682;23;20199;-70
2022/03/20 13:12:26;;;;;;;22.30;14.68;;;23.10;32.90;;;;;;6166536;23;20183;-72
2022/03/20 13:14:55;;;;;;;21.23;14.85;;;23.10;32.80;;;;;;6193037;23;20290;-71
2022/03/20 13:17:25;;;;;;;24.30;14.35;;;23.10;33.30;;;;;;6190670;23;20167;-71
2022/03/20 13:19:52;;;;;;;20.83;14.18;;;23.00;33.20;;;;;;6180124;23;20210;-74
2022/03/20 13:22:21;;;;;;;23.27;13.48;;;23.10;33.30;;;;;;6186221;23;20175;-74